sensor_id;sensor_type;location;lat;lon;timestamp;P1;durP1;ratioP1;P2;durP2;ratioP2
22040;SDS011;11184;52.444;13.578;2023-02-12T00:00:07;24.85;;;10.18;;
22040;SDS011;11184;52.444;13.578;2023-02-12T00:02:52;24.65;;;10.02;;
22040;SDS011;11184;52.444;13.578;2023-02-12T00:05:37;34.72;;;12.02;;
22040;SDS011;11184;52.444;13.578;2023-02-12T00:08:22;17.95;;;9.77;;
22040;SDS011;11184;52.444;13.578;2023-02-12T00:11:11;27.55;;;10.60;;
22040;SDS011;11184;52.444;13.578;2023-02-12T00:13:56;21.35;;;9.35;;
22040;SDS011;11184;52.444;13.578;2023-02-12T00:16:41;15.93;;;9.27;;
22040;SDS011;11184;52.444;13.578;2023-02-12T00:19:25;24.85;;;11.10;;
22040;SDS011;11184;52.444;13.578;2023-02-12T00:22:10;28.75;;;11.68;;
22040;SDS011;11184;52.444;13.578;2023-02-12T00:24:55;21.90;;;9.95;;
22040;SDS011;11184;52.444;13.578;2023-02-12T00:27:40;22.17;;;9.00;;
22040;SDS011;11184;52.444;13.578;2023-02-12T00:30:24;18.38;;;10.02;;
22040;SDS011;11184;52.444;13.578;2023-02-12T00:33:10;19.90;;;10.90;;
22040;SDS011;11184;52.444;13.578;2023-02-12T00:35:55;24.10;;;9.57;;
22040;SDS011;11184;52.444;13.578;2023-02-12T00:38:40;16.63;;;8.70;;
22040;SDS011;11184;52.444;13.578;2023-02-12T00:41:24;24.33;;;10.32;;
22040;SDS011;11184;52.444;13.578;2023-02-12T00:44:10;17.23;;;9.18;;
22040;SDS011;11184;52.444;13.578;2023-02-12T00:46:54;17.30;;;9.77;;
22040;SDS011;11184;52.444;13.578;2023-02-12T00:49:39;21.33;;;9.50;;
22040;SDS011;11184;52.444;13.578;2023-02-12T00:52:24;22.13;;;9.65;;
22040;SDS011;11184;52.444;13.578;2023-02-12T00:55:08;18.42;;;9.32;;
22040;SDS011;11184;52.444;13.578;2023-02-12T00:57:53;18.85;;;7.35;;
22040;SDS011;11184;52.444;13.578;2023-02-12T01:00:38;12.77;;;9.05;;
22040;SDS011;11184;52.444;13.578;2023-02-12T01:03:23;22.67;;;7.30;;
22040;SDS011;11184;52.444;13.578;2023-02-12T01:06:07;24.33;;;9.18;;
22040;SDS011;11184;52.444;13.578;2023-02-12T01:08:52;21.63;;;8.60;;
22040;SDS011;11184;52.444;13.578;2023-02-12T01:11:37;25.83;;;8.35;;
22040;SDS011;11184;52.444;13.578;2023-02-12T01:14:22;12.25;;;7.78;;
22040;SDS011;11184;52.444;13.578;2023-02-12T01:17:07;18.85;;;8.10;;
22040;SDS011;11184;52.444;13.578;2023-02-12T01:19:55;16.73;;;7.03;;
22040;SDS011;11184;52.444;13.578;2023-02-12T01:22:41;12.32;;;7.07;;
22040;SDS011;11184;52.444;13.578;2023-02-12T01:25:25;28.67;;;8.95;;
22040;SDS011;11184;52.444;13.578;2023-02-12T01:28:10;22.65;;;7.70;;
22040;SDS011;11184;52.444;13.578;2023-02-12T01:30:55;18.25;;;8.48;;
22040;SDS011;11184;52.444;13.578;2023-02-12T01:33:39;18.42;;;9.27;;
22040;SDS011;11184;52.444;13.578;2023-02-12T01:36:24;23.50;;;8.18;;
22040;SDS011;11184;52.444;13.578;2023-02-12T01:39:09;22.02;;;8.43;;
22040;SDS011;11184;52.444;13.578;2023-02-12T01:41:54;16.33;;;7.57;;
22040;SDS011;11184;52.444;13.578;2023-02-12T01:44:43;22.00;;;7.47;;
22040;SDS011;11184;52.444;13.578;2023-02-12T01:47:28;25.77;;;7.93;;
22040;SDS011;11184;52.444;13.578;2023-02-12T01:50:16;18.17;;;9.50;;
22040;SDS011;11184;52.444;13.578;2023-02-12T01:53:02;18.60;;;8.00;;
22040;SDS011;11184;52.444;13.578;2023-02-12T01:55:48;20.98;;;7.85;;
22040;SDS011;11184;52.444;13.578;2023-02-12T01:58:34;18.45;;;8.13;;
22040;SDS011;11184;52.444;13.578;2023-02-12T02:01:20;20.60;;;8.90;;
22040;SDS011;11184;52.444;13.578;2023-02-12T02:04:07;24.25;;;10.43;;
22040;SDS011;11184;52.444;13.578;2023-02-12T02:07:12;18.80;;;7.78;;
22040;SDS011;11184;52.444;13.578;2023-02-12T02:09:56;23.50;;;8.73;;
22040;SDS011;11184;52.444;13.578;2023-02-12T02:12:41;21.50;;;10.10;;
22040;SDS011;11184;52.444;13.578;2023-02-12T02:15:46;20.75;;;8.02;;
22040;SDS011;11184;52.444;13.578;2023-02-12T02:18:40;26.35;;;9.20;;
22040;SDS011;11184;52.444;13.578;2023-02-12T02:21:37;28.10;;;10.68;;
22040;SDS011;11184;52.444;13.578;2023-02-12T02:27:41;27.05;;;8.85;;
22040;SDS011;11184;52.444;13.578;2023-02-12T02:33:29;21.35;;;8.55;;
22040;SDS011;11184;52.444;13.578;2023-02-12T02:39:16;23.98;;;7.53;;
22040;SDS011;11184;52.444;13.578;2023-02-12T02:42:22;20.83;;;8.90;;
22040;SDS011;11184;52.444;13.578;2023-02-12T02:45:15;18.85;;;6.80;;
22040;SDS011;11184;52.444;13.578;2023-02-12T02:48:03;18.95;;;7.70;;
22040;SDS011;11184;52.444;13.578;2023-02-12T02:50:55;26.10;;;8.20;;
22040;SDS011;11184;52.444;13.578;2023-02-12T02:53:42;16.20;;;6.57;;
22040;SDS011;11184;52.444;13.578;2023-02-12T02:56:28;19.50;;;8.43;;
22040;SDS011;11184;52.444;13.578;2023-02-12T02:59:16;29.40;;;8.07;;
22040;SDS011;11184;52.444;13.578;2023-02-12T03:02:05;18.52;;;6.78;;
22040;SDS011;11184;52.444;13.578;2023-02-12T03:04:52;20.70;;;6.53;;
22040;SDS011;11184;52.444;13.578;2023-02-12T03:07:49;25.77;;;5.90;;
22040;SDS011;11184;52.444;13.578;2023-02-12T03:10:45;22.80;;;7.07;;
22040;SDS011;11184;52.444;13.578;2023-02-12T03:13:32;24.33;;;6.93;;
22040;SDS011;11184;52.444;13.578;2023-02-12T03:16:21;23.05;;;6.43;;
22040;SDS011;11184;52.444;13.578;2023-02-12T03:21:56;18.83;;;5.88;;
22040;SDS011;11184;52.444;13.578;2023-02-12T03:24:43;17.83;;;7.00;;
22040;SDS011;11184;52.444;13.578;2023-02-12T03:27:29;31.25;;;7.07;;
22040;SDS011;11184;52.444;13.578;2023-02-12T03:30:15;26.98;;;6.47;;
22040;SDS011;11184;52.444;13.578;2023-02-12T03:33:04;21.95;;;6.30;;
22040;SDS011;11184;52.444;13.578;2023-02-12T03:35:54;22.27;;;7.07;;
22040;SDS011;11184;52.444;13.578;2023-02-12T03:38:41;22.55;;;7.32;;
22040;SDS011;11184;52.444;13.578;2023-02-12T03:41:30;22.63;;;7.78;;
22040;SDS011;11184;52.444;13.578;2023-02-12T03:47:16;27.20;;;6.35;;
22040;SDS011;11184;52.444;13.578;2023-02-12T03:50:20;25.60;;;8.93;;
22040;SDS011;11184;52.444;13.578;2023-02-12T03:53:08;26.58;;;6.97;;
22040;SDS011;11184;52.444;13.578;2023-02-12T03:55:55;22.42;;;7.70;;
22040;SDS011;11184;52.444;13.578;2023-02-12T03:58:41;18.92;;;6.78;;
22040;SDS011;11184;52.444;13.578;2023-02-12T04:01:26;26.55;;;7.15;;
22040;SDS011;11184;52.444;13.578;2023-02-12T04:04:11;28.55;;;8.63;;
22040;SDS011;11184;52.444;13.578;2023-02-12T04:06:56;29.58;;;8.18;;
22040;SDS011;11184;52.444;13.578;2023-02-12T04:09:41;32.10;;;9.80;;
22040;SDS011;11184;52.444;13.578;2023-02-12T04:15:39;23.60;;;9.77;;
22040;SDS011;11184;52.444;13.578;2023-02-12T04:18:30;19.15;;;9.65;;
22040;SDS011;11184;52.444;13.578;2023-02-12T04:21:26;27.67;;;8.43;;
22040;SDS011;11184;52.444;13.578;2023-02-12T04:27:14;25.95;;;8.07;;
22040;SDS011;11184;52.444;13.578;2023-02-12T04:30:17;23.15;;;8.30;;
22040;SDS011;11184;52.444;13.578;2023-02-12T04:33:05;21.35;;;7.80;;
22040;SDS011;11184;52.444;13.578;2023-02-12T04:35:52;25.77;;;8.63;;
22040;SDS011;11184;52.444;13.578;2023-02-12T04:38:46;16.67;;;7.35;;
22040;SDS011;11184;52.444;13.578;2023-02-12T04:41:31;28.63;;;9.02;;
22040;SDS011;11184;52.444;13.578;2023-02-12T04:44:17;37.20;;;8.43;;
22040;SDS011;11184;52.444;13.578;2023-02-12T04:47:02;23.33;;;8.23;;
22040;SDS011;11184;52.444;13.578;2023-02-12T04:49:47;23.02;;;7.80;;
22040;SDS011;11184;52.444;13.578;2023-02-12T04:52:32;23.40;;;8.52;;
22040;SDS011;11184;52.444;13.578;2023-02-12T04:55:17;31.17;;;8.68;;
22040;SDS011;11184;52.444;13.578;2023-02-12T04:58:01;30.13;;;8.43;;
22040;SDS011;11184;52.444;13.578;2023-02-12T05:00:46;20.05;;;8.07;;
22040;SDS011;11184;52.444;13.578;2023-02-12T05:03:31;27.88;;;8.07;;
22040;SDS011;11184;52.444;13.578;2023-02-12T05:06:15;30.25;;;9.52;;
22040;SDS011;11184;52.444;13.578;2023-02-12T05:09:00;26.05;;;9.75;;
22040;SDS011;11184;52.444;13.578;2023-02-12T05:11:45;26.80;;;9.45;;
22040;SDS011;11184;52.444;13.578;2023-02-12T05:14:32;30.63;;;8.43;;
22040;SDS011;11184;52.444;13.578;2023-02-12T05:17:17;26.90;;;8.32;;
22040;SDS011;11184;52.444;13.578;2023-02-12T05:20:01;28.55;;;10.23;;
22040;SDS011;11184;52.444;13.578;2023-02-12T05:22:49;23.88;;;8.20;;
22040;SDS011;11184;52.444;13.578;2023-02-12T05:25:34;26.25;;;9.35;;
22040;SDS011;11184;52.444;13.578;2023-02-12T05:28:19;37.50;;;9.75;;
22040;SDS011;11184;52.444;13.578;2023-02-12T05:31:06;16.77;;;7.00;;
22040;SDS011;11184;52.444;13.578;2023-02-12T05:33:51;25.08;;;9.52;;
22040;SDS011;11184;52.444;13.578;2023-02-12T05:36:36;29.05;;;8.18;;
22040;SDS011;11184;52.444;13.578;2023-02-12T05:39:21;22.88;;;8.20;;
22040;SDS011;11184;52.444;13.578;2023-02-12T05:42:06;25.08;;;10.13;;
22040;SDS011;11184;52.444;13.578;2023-02-12T05:44:50;19.60;;;8.68;;
22040;SDS011;11184;52.444;13.578;2023-02-12T05:47:35;22.25;;;9.45;;
22040;SDS011;11184;52.444;13.578;2023-02-12T05:50:19;32.15;;;9.57;;
22040;SDS011;11184;52.444;13.578;2023-02-12T05:53:04;26.40;;;10.52;;
22040;SDS011;11184;52.444;13.578;2023-02-12T05:55:49;26.52;;;11.30;;
22040;SDS011;11184;52.444;13.578;2023-02-12T05:58:33;20.65;;;10.07;;
22040;SDS011;11184;52.444;13.578;2023-02-12T06:01:19;21.60;;;9.73;;
22040;SDS011;11184;52.444;13.578;2023-02-12T06:04:05;27.67;;;10.85;;
22040;SDS011;11184;52.444;13.578;2023-02-12T06:06:51;29.58;;;10.40;;
22040;SDS011;11184;52.444;13.578;2023-02-12T06:09:36;31.67;;;10.32;;
22040;SDS011;11184;52.444;13.578;2023-02-12T06:12:20;22.75;;;10.27;;
22040;SDS011;11184;52.444;13.578;2023-02-12T06:15:05;34.83;;;10.88;;
22040;SDS011;11184;52.444;13.578;2023-02-12T06:17:50;27.33;;;11.57;;
22040;SDS011;11184;52.444;13.578;2023-02-12T06:20:37;17.70;;;8.40;;
22040;SDS011;11184;52.444;13.578;2023-02-12T06:23:22;23.85;;;9.18;;
22040;SDS011;11184;52.444;13.578;2023-02-12T06:26:07;23.13;;;9.43;;
22040;SDS011;11184;52.444;13.578;2023-02-12T06:28:52;31.17;;;9.32;;
22040;SDS011;11184;52.444;13.578;2023-02-12T06:31:36;36.28;;;10.40;;
22040;SDS011;11184;52.444;13.578;2023-02-12T06:34:21;32.08;;;8.70;;
22040;SDS011;11184;52.444;13.578;2023-02-12T06:37:06;29.35;;;9.95;;
22040;SDS011;11184;52.444;13.578;2023-02-12T06:39:50;25.25;;;7.80;;
22040;SDS011;11184;52.444;13.578;2023-02-12T06:42:35;23.30;;;8.48;;
22040;SDS011;11184;52.444;13.578;2023-02-12T06:45:19;20.75;;;8.75;;
22040;SDS011;11184;52.444;13.578;2023-02-12T06:48:04;26.73;;;9.88;;
22040;SDS011;11184;52.444;13.578;2023-02-12T06:50:49;18.75;;;8.07;;
22040;SDS011;11184;52.444;13.578;2023-02-12T06:53:34;23.35;;;9.10;;
22040;SDS011;11184;52.444;13.578;2023-02-12T06:56:18;20.05;;;9.20;;
22040;SDS011;11184;52.444;13.578;2023-02-12T06:59:03;21.30;;;9.10;;
22040;SDS011;11184;52.444;13.578;2023-02-12T07:01:48;20.27;;;8.68;;
22040;SDS011;11184;52.444;13.578;2023-02-12T07:04:32;15.93;;;8.95;;
22040;SDS011;11184;52.444;13.578;2023-02-12T07:07:17;21.38;;;9.00;;
22040;SDS011;11184;52.444;13.578;2023-02-12T07:10:01;20.85;;;8.77;;
22040;SDS011;11184;52.444;13.578;2023-02-12T07:12:46;22.25;;;7.50;;
22040;SDS011;11184;52.444;13.578;2023-02-12T07:15:31;21.50;;;8.35;;
22040;SDS011;11184;52.444;13.578;2023-02-12T07:18:15;11.95;;;7.07;;
22040;SDS011;11184;52.444;13.578;2023-02-12T07:21:00;24.98;;;9.63;;
22040;SDS011;11184;52.444;13.578;2023-02-12T07:23:45;18.58;;;8.32;;
22040;SDS011;11184;52.444;13.578;2023-02-12T07:26:30;25.85;;;8.13;;
22040;SDS011;11184;52.444;13.578;2023-02-12T07:29:15;19.33;;;8.55;;
22040;SDS011;11184;52.444;13.578;2023-02-12T07:31:59;19.35;;;10.23;;
22040;SDS011;11184;52.444;13.578;2023-02-12T07:34:44;23.20;;;9.23;;
22040;SDS011;11184;52.444;13.578;2023-02-12T07:37:30;18.83;;;8.85;;
22040;SDS011;11184;52.444;13.578;2023-02-12T07:40:14;23.55;;;10.32;;
22040;SDS011;11184;52.444;13.578;2023-02-12T07:42:59;32.47;;;11.27;;
22040;SDS011;11184;52.444;13.578;2023-02-12T07:45:43;38.85;;;10.32;;
22040;SDS011;11184;52.444;13.578;2023-02-12T07:48:28;21.48;;;10.27;;
22040;SDS011;11184;52.444;13.578;2023-02-12T07:51:13;17.98;;;9.43;;
22040;SDS011;11184;52.444;13.578;2023-02-12T07:53:59;25.60;;;10.70;;
22040;SDS011;11184;52.444;13.578;2023-02-12T07:56:44;22.02;;;9.27;;
22040;SDS011;11184;52.444;13.578;2023-02-12T07:59:29;17.90;;;8.80;;
22040;SDS011;11184;52.444;13.578;2023-02-12T08:02:14;19.83;;;8.18;;
22040;SDS011;11184;52.444;13.578;2023-02-12T08:04:58;21.50;;;7.75;;
22040;SDS011;11184;52.444;13.578;2023-02-12T08:07:43;18.33;;;8.05;;
22040;SDS011;11184;52.444;13.578;2023-02-12T08:10:28;17.52;;;8.13;;
22040;SDS011;11184;52.444;13.578;2023-02-12T08:13:12;24.20;;;10.98;;
22040;SDS011;11184;52.444;13.578;2023-02-12T08:16:01;26.70;;;12.77;;
22040;SDS011;11184;52.444;13.578;2023-02-12T08:18:46;24.13;;;11.18;;
22040;SDS011;11184;52.444;13.578;2023-02-12T08:21:31;37.83;;;14.15;;
22040;SDS011;11184;52.444;13.578;2023-02-12T08:24:15;20.80;;;12.80;;
22040;SDS011;11184;52.444;13.578;2023-02-12T08:27:00;23.52;;;12.68;;
22040;SDS011;11184;52.444;13.578;2023-02-12T08:29:45;24.33;;;13.43;;
22040;SDS011;11184;52.444;13.578;2023-02-12T08:32:29;21.83;;;11.38;;
22040;SDS011;11184;52.444;13.578;2023-02-12T08:35:16;22.73;;;10.95;;
22040;SDS011;11184;52.444;13.578;2023-02-12T08:38:01;16.25;;;9.10;;
22040;SDS011;11184;52.444;13.578;2023-02-12T08:40:45;24.45;;;10.63;;
22040;SDS011;11184;52.444;13.578;2023-02-12T08:43:30;23.83;;;9.43;;
22040;SDS011;11184;52.444;13.578;2023-02-12T08:46:16;17.27;;;7.70;;
22040;SDS011;11184;52.444;13.578;2023-02-12T08:49:02;25.23;;;9.27;;
22040;SDS011;11184;52.444;13.578;2023-02-12T08:51:48;15.18;;;7.53;;
22040;SDS011;11184;52.444;13.578;2023-02-12T08:54:33;24.88;;;10.20;;
22040;SDS011;11184;52.444;13.578;2023-02-12T08:57:18;24.30;;;8.95;;
22040;SDS011;11184;52.444;13.578;2023-02-12T09:00:02;17.65;;;9.50;;
22040;SDS011;11184;52.444;13.578;2023-02-12T09:02:47;14.48;;;10.27;;
22040;SDS011;11184;52.444;13.578;2023-02-12T09:05:32;22.27;;;11.45;;
22040;SDS011;11184;52.444;13.578;2023-02-12T09:08:17;26.17;;;10.75;;
22040;SDS011;11184;52.444;13.578;2023-02-12T09:11:05;21.20;;;11.20;;
22040;SDS011;11184;52.444;13.578;2023-02-12T09:13:50;24.45;;;10.15;;
22040;SDS011;11184;52.444;13.578;2023-02-12T09:16:36;22.42;;;9.57;;
22040;SDS011;11184;52.444;13.578;2023-02-12T09:19:22;23.27;;;10.70;;
22040;SDS011;11184;52.444;13.578;2023-02-12T09:22:07;18.30;;;9.70;;
22040;SDS011;11184;52.444;13.578;2023-02-12T09:24:51;26.33;;;8.70;;
22040;SDS011;11184;52.444;13.578;2023-02-12T09:27:36;22.98;;;10.35;;
22040;SDS011;11184;52.444;13.578;2023-02-12T09:30:21;23.08;;;10.40;;
22040;SDS011;11184;52.444;13.578;2023-02-12T09:33:06;17.88;;;9.70;;
22040;SDS011;11184;52.444;13.578;2023-02-12T09:35:51;17.35;;;8.63;;
22040;SDS011;11184;52.444;13.578;2023-02-12T09:38:36;21.88;;;9.05;;
22040;SDS011;11184;52.444;13.578;2023-02-12T09:41:34;17.73;;;6.97;;
22040;SDS011;11184;52.444;13.578;2023-02-12T09:47:20;13.95;;;6.53;;
22040;SDS011;11184;52.444;13.578;2023-02-12T09:53:07;13.20;;;7.20;;
22040;SDS011;11184;52.444;13.578;2023-02-12T09:55:54;14.85;;;7.28;;
22040;SDS011;11184;52.444;13.578;2023-02-12T09:58:49;15.52;;;6.90;;
22040;SDS011;11184;52.444;13.578;2023-02-12T10:01:35;19.73;;;7.95;;
22040;SDS011;11184;52.444;13.578;2023-02-12T10:04:20;30.73;;;8.73;;
22040;SDS011;11184;52.444;13.578;2023-02-12T10:07:08;16.30;;;6.13;;
22040;SDS011;11184;52.444;13.578;2023-02-12T10:15:36;17.55;;;7.32;;
22040;SDS011;11184;52.444;13.578;2023-02-12T10:18:38;19.00;;;7.63;;
22040;SDS011;11184;52.444;13.578;2023-02-12T10:21:30;22.42;;;7.45;;
22040;SDS011;11184;52.444;13.578;2023-02-12T10:27:02;14.77;;;7.07;;
22040;SDS011;11184;52.444;13.578;2023-02-12T10:29:48;19.48;;;8.18;;
22040;SDS011;11184;52.444;13.578;2023-02-12T10:32:34;14.57;;;7.25;;
22040;SDS011;11184;52.444;13.578;2023-02-12T10:35:20;14.35;;;7.40;;
22040;SDS011;11184;52.444;13.578;2023-02-12T10:38:07;17.13;;;7.10;;
22040;SDS011;11184;52.444;13.578;2023-02-12T10:40:57;17.65;;;6.70;;
22040;SDS011;11184;52.444;13.578;2023-02-12T10:43:45;16.45;;;8.35;;
22040;SDS011;11184;52.444;13.578;2023-02-12T10:46:29;22.90;;;7.68;;
22040;SDS011;11184;52.444;13.578;2023-02-12T10:49:15;19.85;;;7.70;;
22040;SDS011;11184;52.444;13.578;2023-02-12T10:52:06;18.42;;;7.95;;
22040;SDS011;11184;52.444;13.578;2023-02-12T10:54:51;24.05;;;8.10;;
22040;SDS011;11184;52.444;13.578;2023-02-12T10:57:36;16.83;;;6.50;;
22040;SDS011;11184;52.444;13.578;2023-02-12T11:05:54;17.00;;;8.27;;
22040;SDS011;11184;52.444;13.578;2023-02-12T11:08:38;16.33;;;5.93;;
22040;SDS011;11184;52.444;13.578;2023-02-12T11:11:24;21.85;;;10.43;;
22040;SDS011;11184;52.444;13.578;2023-02-12T11:14:28;18.00;;;8.32;;
22040;SDS011;11184;52.444;13.578;2023-02-12T11:17:18;14.13;;;6.80;;
22040;SDS011;11184;52.444;13.578;2023-02-12T11:23:01;13.05;;;8.07;;
22040;SDS011;11184;52.444;13.578;2023-02-12T11:25:53;14.68;;;6.00;;
22040;SDS011;11184;52.444;13.578;2023-02-12T11:28:38;14.68;;;6.68;;
22040;SDS011;11184;52.444;13.578;2023-02-12T11:31:35;10.88;;;6.05;;
22040;SDS011;11184;52.444;13.578;2023-02-12T11:34:20;9.63;;;6.38;;
22040;SDS011;11184;52.444;13.578;2023-02-12T11:37:06;15.38;;;6.47;;
22040;SDS011;11184;52.444;13.578;2023-02-12T11:39:57;9.32;;;5.95;;
22040;SDS011;11184;52.444;13.578;2023-02-12T11:42:45;8.77;;;5.13;;
22040;SDS011;11184;52.444;13.578;2023-02-12T11:45:31;9.68;;;7.00;;
22040;SDS011;11184;52.444;13.578;2023-02-12T11:51:08;10.52;;;6.45;;
22040;SDS011;11184;52.444;13.578;2023-02-12T11:54:02;10.23;;;7.10;;
22040;SDS011;11184;52.444;13.578;2023-02-12T11:56:47;15.32;;;7.03;;
22040;SDS011;11184;52.444;13.578;2023-02-12T11:59:36;10.05;;;7.40;;
22040;SDS011;11184;52.444;13.578;2023-02-12T12:02:22;13.73;;;6.45;;
22040;SDS011;11184;52.444;13.578;2023-02-12T12:05:10;13.27;;;7.03;;
22040;SDS011;11184;52.444;13.578;2023-02-12T12:07:58;10.52;;;6.75;;
22040;SDS011;11184;52.444;13.578;2023-02-12T12:10:45;12.05;;;8.60;;
22040;SDS011;11184;52.444;13.578;2023-02-12T12:13:35;14.75;;;7.95;;
22040;SDS011;11184;52.444;13.578;2023-02-12T12:16:24;19.05;;;8.43;;
22040;SDS011;11184;52.444;13.578;2023-02-12T12:19:41;17.50;;;9.80;;
22040;SDS011;11184;52.444;13.578;2023-02-12T12:22:41;17.55;;;10.13;;
22040;SDS011;11184;52.444;13.578;2023-02-12T12:25:36;13.60;;;9.27;;
22040;SDS011;11184;52.444;13.578;2023-02-12T12:28:31;17.17;;;10.90;;
22040;SDS011;11184;52.444;13.578;2023-02-12T12:31:19;14.75;;;8.30;;
22040;SDS011;11184;52.444;13.578;2023-02-12T12:40:27;13.85;;;8.77;;
22040;SDS011;11184;52.444;13.578;2023-02-12T12:43:18;15.00;;;9.95;;
22040;SDS011;11184;52.444;13.578;2023-02-12T12:46:20;16.52;;;10.77;;
22040;SDS011;11184;52.444;13.578;2023-02-12T12:49:16;14.93;;;9.57;;
22040;SDS011;11184;52.444;13.578;2023-02-12T12:52:07;16.10;;;10.30;;
22040;SDS011;11184;52.444;13.578;2023-02-12T12:54:59;12.23;;;9.38;;
22040;SDS011;11184;52.444;13.578;2023-02-12T12:57:53;14.82;;;9.85;;
22040;SDS011;11184;52.444;13.578;2023-02-12T13:01:02;16.67;;;10.00;;
22040;SDS011;11184;52.444;13.578;2023-02-12T13:07:01;14.25;;;8.68;;
22040;SDS011;11184;52.444;13.578;2023-02-12T13:10:04;12.25;;;9.02;;
22040;SDS011;11184;52.444;13.578;2023-02-12T13:15:59;12.43;;;9.55;;
22040;SDS011;11184;52.444;13.578;2023-02-12T13:18:48;11.75;;;9.45;;
22040;SDS011;11184;52.444;13.578;2023-02-12T13:21:44;11.55;;;10.00;;
22040;SDS011;11184;52.444;13.578;2023-02-12T13:24:33;15.15;;;11.45;;
22040;SDS011;11184;52.444;13.578;2023-02-12T13:27:21;13.18;;;11.85;;
22040;SDS011;11184;52.444;13.578;2023-02-12T13:30:19;13.27;;;10.88;;
22040;SDS011;11184;52.444;13.578;2023-02-12T13:35:51;14.48;;;10.93;;
22040;SDS011;11184;52.444;13.578;2023-02-12T13:38:37;11.50;;;7.45;;
22040;SDS011;11184;52.444;13.578;2023-02-12T13:41:24;10.57;;;8.60;;
22040;SDS011;11184;52.444;13.578;2023-02-12T13:44:17;7.25;;;6.55;;
22040;SDS011;11184;52.444;13.578;2023-02-12T13:49:50;8.95;;;6.60;;
22040;SDS011;11184;52.444;13.578;2023-02-12T13:52:43;9.77;;;6.53;;
22040;SDS011;11184;52.444;13.578;2023-02-12T13:55:34;6.95;;;6.15;;
22040;SDS011;11184;52.444;13.578;2023-02-12T14:01:36;7.85;;;6.95;;
22040;SDS011;11184;52.444;13.578;2023-02-12T14:07:42;9.43;;;6.68;;
22040;SDS011;11184;52.444;13.578;2023-02-12T14:10:34;10.90;;;8.00;;
22040;SDS011;11184;52.444;13.578;2023-02-12T14:13:21;10.15;;;8.02;;
22040;SDS011;11184;52.444;13.578;2023-02-12T14:22:55;8.32;;;7.53;;
22040;SDS011;11184;52.444;13.578;2023-02-12T14:25:36;7.43;;;6.25;;
22040;SDS011;11184;52.444;13.578;2023-02-12T14:36:56;7.15;;;6.30;;
22040;SDS011;11184;52.444;13.578;2023-02-12T14:40:16;8.98;;;6.78;;
22040;SDS011;11184;52.444;13.578;2023-02-12T14:42:57;8.48;;;5.43;;
22040;SDS011;11184;52.444;13.578;2023-02-12T14:45:42;9.02;;;6.28;;
22040;SDS011;11184;52.444;13.578;2023-02-12T14:48:37;5.85;;;4.90;;
22040;SDS011;11184;52.444;13.578;2023-02-12T14:51:42;6.60;;;5.50;;
22040;SDS011;11184;52.444;13.578;2023-02-12T14:54:31;7.88;;;5.78;;
22040;SDS011;11184;52.444;13.578;2023-02-12T14:57:28;6.10;;;4.65;;
22040;SDS011;11184;52.444;13.578;2023-02-12T15:03:04;9.30;;;7.63;;
22040;SDS011;11184;52.444;13.578;2023-02-12T15:06:03;11.25;;;8.30;;
22040;SDS011;11184;52.444;13.578;2023-02-12T15:08:50;10.45;;;8.60;;
22040;SDS011;11184;52.444;13.578;2023-02-12T15:11:44;8.52;;;5.70;;
22040;SDS011;11184;52.444;13.578;2023-02-12T15:14:30;5.68;;;5.13;;
22040;SDS011;11184;52.444;13.578;2023-02-12T15:17:25;6.35;;;5.75;;
22040;SDS011;11184;52.444;13.578;2023-02-12T15:20:21;5.55;;;5.05;;
22040;SDS011;11184;52.444;13.578;2023-02-12T15:26:24;11.63;;;6.22;;
22040;SDS011;11184;52.444;13.578;2023-02-12T15:29:21;8.25;;;5.97;;
22040;SDS011;11184;52.444;13.578;2023-02-12T15:32:08;7.00;;;6.30;;
22040;SDS011;11184;52.444;13.578;2023-02-12T15:34:56;7.32;;;6.40;;
22040;SDS011;11184;52.444;13.578;2023-02-12T15:37:41;7.70;;;6.25;;
22040;SDS011;11184;52.444;13.578;2023-02-12T15:40:27;10.13;;;6.68;;
22040;SDS011;11184;52.444;13.578;2023-02-12T15:43:16;6.53;;;5.85;;
22040;SDS011;11184;52.444;13.578;2023-02-12T15:46:02;8.18;;;5.85;;
22040;SDS011;11184;52.444;13.578;2023-02-12T15:48:49;9.48;;;6.32;;
22040;SDS011;11184;52.444;13.578;2023-02-12T15:51:37;11.68;;;10.32;;
22040;SDS011;11184;52.444;13.578;2023-02-12T15:54:24;18.35;;;15.20;;
22040;SDS011;11184;52.444;13.578;2023-02-12T15:57:10;10.75;;;8.80;;
22040;SDS011;11184;52.444;13.578;2023-02-12T15:59:55;7.60;;;6.03;;
22040;SDS011;11184;52.444;13.578;2023-02-12T16:02:40;6.93;;;6.13;;
22040;SDS011;11184;52.444;13.578;2023-02-12T16:05:26;7.03;;;5.18;;
22040;SDS011;11184;52.444;13.578;2023-02-12T16:08:12;6.45;;;5.05;;
22040;SDS011;11184;52.444;13.578;2023-02-12T16:10:58;9.07;;;5.38;;
22040;SDS011;11184;52.444;13.578;2023-02-12T16:13:48;8.82;;;5.97;;
22040;SDS011;11184;52.444;13.578;2023-02-12T16:16:44;9.38;;;6.65;;
22040;SDS011;11184;52.444;13.578;2023-02-12T16:19:31;7.30;;;4.88;;
22040;SDS011;11184;52.444;13.578;2023-02-12T16:22:16;8.95;;;6.00;;
22040;SDS011;11184;52.444;13.578;2023-02-12T16:25:02;12.80;;;8.18;;
22040;SDS011;11184;52.444;13.578;2023-02-12T16:27:53;8.95;;;6.25;;
22040;SDS011;11184;52.444;13.578;2023-02-12T16:30:40;16.48;;;6.28;;
22040;SDS011;11184;52.444;13.578;2023-02-12T16:33:59;12.77;;;7.30;;
22040;SDS011;11184;52.444;13.578;2023-02-12T16:36:44;15.13;;;7.53;;
22040;SDS011;11184;52.444;13.578;2023-02-12T16:42:26;12.00;;;9.00;;
22040;SDS011;11184;52.444;13.578;2023-02-12T16:48:14;9.35;;;6.80;;
22040;SDS011;11184;52.444;13.578;2023-02-12T16:50:59;13.00;;;6.55;;
22040;SDS011;11184;52.444;13.578;2023-02-12T16:53:49;12.27;;;7.20;;
22040;SDS011;11184;52.444;13.578;2023-02-12T16:56:36;11.25;;;7.18;;
22040;SDS011;11184;52.444;13.578;2023-02-12T16:59:21;11.25;;;6.40;;
22040;SDS011;11184;52.444;13.578;2023-02-12T17:02:11;9.10;;;6.43;;
22040;SDS011;11184;52.444;13.578;2023-02-12T17:04:56;10.07;;;6.90;;
22040;SDS011;11184;52.444;13.578;2023-02-12T17:07:43;6.82;;;5.32;;
22040;SDS011;11184;52.444;13.578;2023-02-12T17:10:28;12.18;;;7.03;;
22040;SDS011;11184;52.444;13.578;2023-02-12T17:13:13;7.10;;;4.88;;
22040;SDS011;11184;52.444;13.578;2023-02-12T17:15:58;7.47;;;5.30;;
22040;SDS011;11184;52.444;13.578;2023-02-12T17:18:46;8.15;;;6.28;;
22040;SDS011;11184;52.444;13.578;2023-02-12T17:21:41;6.80;;;5.85;;
22040;SDS011;11184;52.444;13.578;2023-02-12T17:24:27;6.90;;;4.72;;
22040;SDS011;11184;52.444;13.578;2023-02-12T17:27:12;8.15;;;4.50;;
22040;SDS011;11184;52.444;13.578;2023-02-12T17:29:56;7.45;;;4.07;;
22040;SDS011;11184;52.444;13.578;2023-02-12T17:32:41;7.40;;;3.65;;
22040;SDS011;11184;52.444;13.578;2023-02-12T17:35:26;8.50;;;3.08;;
22040;SDS011;11184;52.444;13.578;2023-02-12T17:38:10;3.97;;;2.83;;
22040;SDS011;11184;52.444;13.578;2023-02-12T17:40:55;5.82;;;3.90;;
22040;SDS011;11184;52.444;13.578;2023-02-12T17:43:40;5.57;;;3.70;;
22040;SDS011;11184;52.444;13.578;2023-02-12T17:46:26;6.85;;;5.00;;
22040;SDS011;11184;52.444;13.578;2023-02-12T17:49:11;5.30;;;3.83;;
22040;SDS011;11184;52.444;13.578;2023-02-12T17:51:55;5.75;;;3.72;;
22040;SDS011;11184;52.444;13.578;2023-02-12T17:54:42;8.30;;;4.60;;
22040;SDS011;11184;52.444;13.578;2023-02-12T17:57:27;4.85;;;3.38;;